createdAt,value
2022-10-20T00:01:22.267Z,6.60
2022-10-20T00:03:50.206Z,5.68
2022-10-20T00:06:24.210Z,7.63
2022-10-20T00:08:53.247Z,10.85
2022-10-20T00:11:22.391Z,11.52
2022-10-20T00:13:51.617Z,7.05
2022-10-20T00:16:19.834Z,10.05
2022-10-20T00:18:47.737Z,7.65
2022-10-20T00:21:19.437Z,7.57
2022-10-20T00:23:46.994Z,7.43
2022-10-20T00:26:17.567Z,9.43
2022-10-20T00:28:46.286Z,12.55
2022-10-20T00:31:14.205Z,9.35
2022-10-20T00:33:42.014Z,10.25
2022-10-20T00:36:14.601Z,10.77
2022-10-20T00:38:42.595Z,10.27
2022-10-20T00:41:13.777Z,10.93
2022-10-20T00:43:56.506Z,12.05
2022-10-20T00:46:39.175Z,13.13
2022-10-20T00:49:22.267Z,10.38
2022-10-20T00:51:52.761Z,12.48
2022-10-20T00:54:24.635Z,13.88
2022-10-20T00:56:54.958Z,13.02
2022-10-20T00:59:26.978Z,11.48
2022-10-20T01:01:55.998Z,11.45
2022-10-20T01:04:24.954Z,11.07
2022-10-20T01:06:52.487Z,8.93
2022-10-20T01:09:19.952Z,11.65
2022-10-20T01:12:02.432Z,10.05
2022-10-20T01:14:48.526Z,12.98
2022-10-20T01:17:50.636Z,10.93
2022-10-20T01:20:44.884Z,10.63
2022-10-20T01:23:48.682Z,12.23
2022-10-20T01:26:28.375Z,9.43
2022-10-20T01:28:58.372Z,10.02
2022-10-20T01:31:41.084Z,11.40
2022-10-20T01:34:12.144Z,11.48
2022-10-20T01:36:47.649Z,11.75
2022-10-20T01:39:24.657Z,10.65
2022-10-20T01:41:58.541Z,9.98
2022-10-20T01:44:29.462Z,10.82
2022-10-20T01:46:58.765Z,10.93
2022-10-20T01:49:27.257Z,15.25
2022-10-20T01:51:56.231Z,11.88
2022-10-20T01:54:28.945Z,9.35
2022-10-20T01:57:15.466Z,9.57
2022-10-20T02:00:02.047Z,9.27
2022-10-20T02:02:40.572Z,8.15
2022-10-20T02:05:37.725Z,11.77
2022-10-20T02:08:44.767Z,12.02
2022-10-20T02:11:24.525Z,12.23
2022-10-20T02:13:56.205Z,9.15
2022-10-20T02:16:37.595Z,8.98
2022-10-20T02:19:07.860Z,11.88
2022-10-20T02:21:35.304Z,12.02
2022-10-20T02:24:06.910Z,14.52
2022-10-20T02:26:37.496Z,11.70
2022-10-20T02:29:21.885Z,11.45
2022-10-20T02:31:49.483Z,12.00
2022-10-20T02:34:16.901Z,19.55
2022-10-20T02:36:44.682Z,9.00
2022-10-20T02:39:12.568Z,8.43
2022-10-20T02:41:40.025Z,9.57
2022-10-20T02:44:07.453Z,15.98
2022-10-20T02:46:34.903Z,10.20
2022-10-20T02:49:02.323Z,13.27
2022-10-20T02:51:29.793Z,11.82
2022-10-20T02:53:57.245Z,11.20
2022-10-20T02:56:26.497Z,14.27
2022-10-20T02:58:56.360Z,12.52
2022-10-20T03:01:25.043Z,12.55
2022-10-20T03:03:55.830Z,13.13
2022-10-20T03:06:23.376Z,14.52
2022-10-20T03:08:50.879Z,10.85
2022-10-20T03:11:18.613Z,10.43
2022-10-20T03:13:46.024Z,20.33
2022-10-20T03:16:13.553Z,12.05
2022-10-20T03:18:40.993Z,14.70
2022-10-20T03:21:08.544Z,13.35
2022-10-20T03:23:36.114Z,12.80
2022-10-20T03:26:05.204Z,16.88
2022-10-20T03:28:32.900Z,17.77
2022-10-20T03:31:00.526Z,14.98
2022-10-20T03:33:28.465Z,15.40
2022-10-20T03:35:55.999Z,15.00
2022-10-20T03:38:23.983Z,17.73
2022-10-20T03:40:51.555Z,14.82
2022-10-20T03:43:19.143Z,15.38
2022-10-20T03:45:46.595Z,20.67
2022-10-20T03:48:14.132Z,20.73
2022-10-20T03:50:42.725Z,17.05
2022-10-20T03:53:14.600Z,20.38
2022-10-20T03:55:42.037Z,16.00
2022-10-20T03:58:09.539Z,17.63
2022-10-20T04:00:36.980Z,15.73
2022-10-20T04:03:04.402Z,18.50
2022-10-20T04:05:31.791Z,15.95
2022-10-20T04:07:59.333Z,17.95
2022-10-20T04:10:26.760Z,16.50
2022-10-20T04:12:58.720Z,15.30
2022-10-20T04:15:26.212Z,14.57
2022-10-20T04:17:53.822Z,14.20
2022-10-20T04:20:21.304Z,12.65
2022-10-20T04:22:48.803Z,12.43
2022-10-20T04:25:16.314Z,12.48
2022-10-20T04:27:44.030Z,13.23
2022-10-20T04:30:11.743Z,10.27
2022-10-20T04:32:39.303Z,11.48
2022-10-20T04:35:07.293Z,8.00
2022-10-20T04:37:35.305Z,7.80
2022-10-20T04:40:03.834Z,7.13
2022-10-20T04:42:31.282Z,7.18
2022-10-20T04:47:34.769Z,6.75
2022-10-20T04:50:02.429Z,3.72
2022-10-20T04:52:30.019Z,6.13
2022-10-20T04:54:57.541Z,4.60
2022-10-20T04:57:25.193Z,7.65
2022-10-20T04:59:52.652Z,4.13
2022-10-20T05:02:20.169Z,8.15
2022-10-20T05:04:47.573Z,5.43
2022-10-20T05:07:15.161Z,5.18
2022-10-20T05:09:42.583Z,5.55
2022-10-20T05:12:10.105Z,4.45
2022-10-20T05:14:37.741Z,6.13
2022-10-20T05:17:07.877Z,6.20
2022-10-20T05:19:37.439Z,10.50
2022-10-20T05:22:04.901Z,5.97
2022-10-20T05:24:32.329Z,4.88
2022-10-20T05:26:59.798Z,10.15
2022-10-20T05:29:27.242Z,7.80
2022-10-20T05:31:54.813Z,7.60
2022-10-20T05:34:22.292Z,5.28
2022-10-20T05:36:49.853Z,7.40
2022-10-20T05:39:17.372Z,5.85
2022-10-20T05:41:44.909Z,7.25
2022-10-20T05:44:13.097Z,5.55
2022-10-20T05:46:43.748Z,5.47
2022-10-20T05:49:16.877Z,6.20
2022-10-20T05:51:45.683Z,8.45
2022-10-20T05:54:13.800Z,6.28
2022-10-20T05:56:41.805Z,7.93
2022-10-20T05:59:10.323Z,6.30
2022-10-20T06:01:56.522Z,5.57
2022-10-20T06:04:24.665Z,4.85
2022-10-20T06:06:52.849Z,5.68
2022-10-20T06:09:22.840Z,2.85
2022-10-20T06:11:51.284Z,5.38
2022-10-20T06:14:19.364Z,4.18
2022-10-20T06:16:50.932Z,5.50
2022-10-20T06:19:18.672Z,7.90
2022-10-20T06:21:48.881Z,6.22
2022-10-20T06:24:18.691Z,3.90
2022-10-20T06:26:46.644Z,10.85
2022-10-20T06:29:18.061Z,4.50
2022-10-20T06:31:48.332Z,5.30
2022-10-20T06:34:21.480Z,5.85
2022-10-20T06:36:49.911Z,4.90
2022-10-20T06:39:23.113Z,4.28
2022-10-20T06:41:53.250Z,3.72
2022-10-20T06:44:23.870Z,3.17
2022-10-20T06:46:54.865Z,3.10
2022-10-20T06:49:22.893Z,4.10
2022-10-20T06:51:50.842Z,4.30
2022-10-20T06:54:18.810Z,9.00
2022-10-20T06:56:46.334Z,6.15
2022-10-20T06:59:13.747Z,4.35
2022-10-20T07:01:43.088Z,4.28
2022-10-20T07:04:13.921Z,3.83
2022-10-20T07:06:43.975Z,5.70
2022-10-20T07:09:20.904Z,7.53
2022-10-20T07:11:52.641Z,3.58
2022-10-20T07:14:20.511Z,5.35
2022-10-20T07:16:48.110Z,3.25
2022-10-20T07:19:15.927Z,3.40
2022-10-20T07:21:45.583Z,3.33
2022-10-20T07:24:14.134Z,5.18
2022-10-20T07:26:41.941Z,4.38
2022-10-20T07:29:10.326Z,4.35
2022-10-20T07:31:46.114Z,3.00
2022-10-20T07:34:31.270Z,3.60
2022-10-20T07:36:59.139Z,4.07
2022-10-20T07:39:27.160Z,2.72
2022-10-20T07:41:54.831Z,5.53
2022-10-20T07:44:22.500Z,5.65
2022-10-20T07:46:50.231Z,2.90
2022-10-20T07:52:05.990Z,3.25
2022-10-20T07:54:33.581Z,3.33
2022-10-20T07:57:01.010Z,4.10
2022-10-20T07:59:29.709Z,3.55
2022-10-20T08:01:59.700Z,5.68
2022-10-20T08:04:28.540Z,3.72
2022-10-20T08:06:56.010Z,4.22
2022-10-20T08:09:23.919Z,4.22
2022-10-20T08:11:55.323Z,3.25
2022-10-20T08:14:27.233Z,2.92
2022-10-20T08:16:59.088Z,4.53
2022-10-20T08:19:46.104Z,5.68
2022-10-20T08:22:13.629Z,8.90
2022-10-20T08:24:41.019Z,5.85
2022-10-20T08:27:08.509Z,4.13
2022-10-20T08:29:36.942Z,4.18
2022-10-20T08:32:05.290Z,2.97
2022-10-20T08:34:32.890Z,4.90
2022-10-20T08:37:00.377Z,4.82
2022-10-20T08:39:28.035Z,2.85
2022-10-20T08:42:08.500Z,5.47
2022-10-20T08:44:40.097Z,5.18
2022-10-20T08:47:19.385Z,2.65
2022-10-20T08:49:47.077Z,4.93
2022-10-20T08:52:15.640Z,3.50
2022-10-20T08:54:43.423Z,5.05
2022-10-20T08:57:34.535Z,4.93
2022-10-20T09:00:25.972Z,2.75
2022-10-20T09:02:54.595Z,5.22
2022-10-20T09:05:26.976Z,2.72
2022-10-20T09:07:55.280Z,6.07
2022-10-20T09:10:29.298Z,6.20
2022-10-20T09:12:57.519Z,4.75
2022-10-20T09:15:26.965Z,3.58
2022-10-20T09:18:04.101Z,4.03
2022-10-20T09:20:42.380Z,4.93
2022-10-20T09:23:35.479Z,2.75
2022-10-20T09:26:02.379Z,6.30
2022-10-20T09:28:34.968Z,5.32
2022-10-20T09:31:21.518Z,3.10
2022-10-20T09:33:49.245Z,5.32
2022-10-20T09:36:21.066Z,6.55
2022-10-20T09:38:51.886Z,4.65
2022-10-20T09:41:26.621Z,5.07
2022-10-20T09:44:08.355Z,3.30
2022-10-20T09:46:50.725Z,3.97
2022-10-20T09:49:27.759Z,4.70
2022-10-20T09:51:55.637Z,6.88
2022-10-20T09:54:25.789Z,5.07
2022-10-20T09:56:54.219Z,5.60
2022-10-20T09:59:33.640Z,7.03
2022-10-20T10:02:26.907Z,3.65
2022-10-20T10:05:12.495Z,3.25
2022-10-20T10:07:40.246Z,3.13
2022-10-20T10:10:29.330Z,4.80
2022-10-20T10:13:04.071Z,2.70
2022-10-20T10:15:34.653Z,6.45
2022-10-20T10:18:19.435Z,4.32
2022-10-20T10:20:47.134Z,3.22
2022-10-20T10:23:21.392Z,5.43
2022-10-20T10:25:50.329Z,5.57
2022-10-20T10:28:32.355Z,6.78
2022-10-20T10:31:18.426Z,4.60
2022-10-20T10:33:46.498Z,4.25
2022-10-20T10:36:32.369Z,4.40
2022-10-20T10:39:00.317Z,3.95
2022-10-20T10:41:55.735Z,6.63
2022-10-20T10:44:48.126Z,3.78
2022-10-20T10:47:49.472Z,3.25
2022-10-20T10:50:46.564Z,5.50
2022-10-20T10:53:25.800Z,5.22
2022-10-20T10:56:05.469Z,5.38
2022-10-20T10:58:46.608Z,5.38
2022-10-20T11:01:33.307Z,7.97
2022-10-20T11:04:03.786Z,5.47
2022-10-20T11:06:45.100Z,3.40
2022-10-20T11:09:28.367Z,4.10
2022-10-20T11:12:20.557Z,7.30
2022-10-20T11:15:06.317Z,9.52
2022-10-20T11:17:44.909Z,4.22
2022-10-20T11:20:43.906Z,4.88
2022-10-20T11:23:30.447Z,4.88
2022-10-20T11:26:28.986Z,6.82
2022-10-20T11:28:58.623Z,5.85
2022-10-20T11:31:46.887Z,3.63
2022-10-20T11:34:46.936Z,5.20
2022-10-20T11:41:36.604Z,6.10
2022-10-20T11:44:25.532Z,7.25
2022-10-20T11:47:06.882Z,5.15
2022-10-20T11:49:34.941Z,6.03
2022-10-20T11:52:20.272Z,5.57
2022-10-20T11:55:18.696Z,4.72
2022-10-20T11:57:57.617Z,5.55
2022-10-20T12:00:39.847Z,5.85
2022-10-20T12:03:39.586Z,8.02
2022-10-20T12:06:25.555Z,8.52
2022-10-20T12:09:22.220Z,6.55
2022-10-20T12:12:15.766Z,4.72
2022-10-20T12:14:48.076Z,11.40
2022-10-20T12:17:39.088Z,8.65
2022-10-20T12:20:21.624Z,7.03
2022-10-20T12:22:55.036Z,6.10
2022-10-20T12:25:36.105Z,8.93
2022-10-20T12:28:33.192Z,6.82
2022-10-20T12:31:06.581Z,5.60
2022-10-20T12:33:53.546Z,6.60
2022-10-20T12:36:32.966Z,4.45
2022-10-20T12:39:21.776Z,5.28
2022-10-20T12:42:00.064Z,5.97
2022-10-20T12:44:32.255Z,6.65
2022-10-20T12:47:08.296Z,6.07
2022-10-20T12:49:40.665Z,9.73
2022-10-20T12:52:21.235Z,8.85
2022-10-20T12:54:55.994Z,9.00
2022-10-20T12:57:41.599Z,10.68
2022-10-20T13:00:23.966Z,12.93
2022-10-20T13:02:56.222Z,14.82
2022-10-20T13:05:29.755Z,12.85
2022-10-20T13:08:21.406Z,14.30
2022-10-20T13:10:49.504Z,11.57
2022-10-20T13:13:20.108Z,11.20
2022-10-20T13:15:53.976Z,13.60
2022-10-20T13:21:16.052Z,11.13
2022-10-20T13:23:47.476Z,15.88
2022-10-20T13:26:23.959Z,13.98
2022-10-20T13:28:56.550Z,14.20
2022-10-20T13:31:40.485Z,15.55
2022-10-20T13:34:28.064Z,16.73
2022-10-20T13:37:22.946Z,17.10
2022-10-20T13:39:53.514Z,15.80
2022-10-20T13:42:24.176Z,16.55
2022-10-20T13:45:08.265Z,17.42
2022-10-20T13:47:35.729Z,20.58
2022-10-20T13:50:10.651Z,18.25
2022-10-20T13:52:44.549Z,15.52
2022-10-20T13:57:56.307Z,16.75
2022-10-20T14:00:30.643Z,15.63
2022-10-20T14:03:15.764Z,18.67
2022-10-20T14:05:43.320Z,21.13
2022-10-20T14:08:14.547Z,18.63
2022-10-20T14:11:05.263Z,18.77
2022-10-20T14:13:35.697Z,21.20
2022-10-20T14:16:13.576Z,17.73
2022-10-20T14:18:41.088Z,19.52
2022-10-20T14:21:19.019Z,17.02
2022-10-20T14:23:49.326Z,16.10
2022-10-20T14:26:20.845Z,18.65
2022-10-20T14:28:53.108Z,21.75
2022-10-20T14:31:22.884Z,16.80
2022-10-20T14:33:52.266Z,22.60
2022-10-20T14:39:01.370Z,19.80
2022-10-20T14:41:34.827Z,17.55
2022-10-20T14:44:16.242Z,18.80
2022-10-20T14:46:50.766Z,17.55
2022-10-20T14:49:24.158Z,17.58
2022-10-20T14:52:00.677Z,17.90
2022-10-20T14:54:28.230Z,20.02
2022-10-20T14:57:09.203Z,18.50
2022-10-20T15:00:04.727Z,19.40
2022-10-20T15:02:42.708Z,18.10
2022-10-20T15:05:31.489Z,20.00
2022-10-20T15:08:08.689Z,20.42
2022-10-20T15:10:36.499Z,22.63
2022-10-20T15:13:04.483Z,19.48
2022-10-20T15:15:39.215Z,21.08
2022-10-20T15:18:06.693Z,21.45
2022-10-20T15:20:38.884Z,19.20
2022-10-20T15:23:16.816Z,19.27
2022-10-20T15:25:56.117Z,23.58
2022-10-20T15:28:31.058Z,20.08
2022-10-20T15:31:00.613Z,20.77
2022-10-20T15:33:28.536Z,18.98
2022-10-20T15:35:56.048Z,18.65
2022-10-20T15:38:23.553Z,19.23
2022-10-20T15:40:51.091Z,23.80
2022-10-20T15:43:19.403Z,22.77
2022-10-20T15:45:55.060Z,22.45
2022-10-20T15:48:26.143Z,18.75
2022-10-20T15:50:54.491Z,21.75
2022-10-20T15:53:21.923Z,18.10
2022-10-20T15:55:49.457Z,24.17
2022-10-20T15:58:16.842Z,20.35
2022-10-20T16:00:44.427Z,19.73
2022-10-20T16:03:18.151Z,19.88
2022-10-20T16:05:46.948Z,20.42
2022-10-20T16:10:47.132Z,18.35
2022-10-20T16:13:15.924Z,22.02
2022-10-20T16:15:44.225Z,24.30
2022-10-20T16:18:11.759Z,18.52
2022-10-20T16:20:39.312Z,24.63
2022-10-20T16:23:06.763Z,17.35
2022-10-20T16:25:34.291Z,23.10
2022-10-20T16:28:01.852Z,20.77
2022-10-20T16:30:29.296Z,16.08
2022-10-20T16:32:56.766Z,21.10
2022-10-20T16:35:24.335Z,19.02
2022-10-20T16:37:51.826Z,21.65
2022-10-20T16:40:19.766Z,19.00
2022-10-20T16:42:47.276Z,17.70
2022-10-20T16:45:14.849Z,17.98
2022-10-20T16:47:42.415Z,21.25
2022-10-20T16:50:09.976Z,17.35
2022-10-20T16:52:37.566Z,17.83
2022-10-20T16:55:05.462Z,19.02
2022-10-20T16:57:38.979Z,19.02
2022-10-20T17:00:08.654Z,15.32
2022-10-20T17:02:37.125Z,15.60
2022-10-20T17:05:08.232Z,17.75
2022-10-20T17:07:37.563Z,17.77
2022-10-20T17:10:06.185Z,17.25
2022-10-20T17:12:33.685Z,13.60
2022-10-20T17:15:01.087Z,16.25
2022-10-20T17:17:28.567Z,15.38
2022-10-20T17:19:56.006Z,17.02
2022-10-20T17:22:23.551Z,14.60
2022-10-20T17:24:50.986Z,14.35
2022-10-20T17:27:18.384Z,14.73
2022-10-20T17:29:47.181Z,15.27
2022-10-20T17:32:17.434Z,13.65
2022-10-20T17:34:45.864Z,14.85
2022-10-20T17:37:13.266Z,16.67
2022-10-20T17:39:40.701Z,16.05
2022-10-20T17:42:08.165Z,13.77
2022-10-20T17:44:35.635Z,13.82
2022-10-20T17:47:04.776Z,12.32
2022-10-20T17:49:32.245Z,15.80
2022-10-20T17:51:59.729Z,13.30
2022-10-20T17:54:27.205Z,13.15
2022-10-20T17:56:54.729Z,13.95
2022-10-20T17:59:22.214Z,13.98
2022-10-20T18:01:49.840Z,14.38
2022-10-20T18:04:17.622Z,18.17
2022-10-20T18:06:45.722Z,9.85
2022-10-20T18:09:15.850Z,11.65
2022-10-20T18:11:46.454Z,10.13
2022-10-20T18:14:13.954Z,14.35
2022-10-20T18:16:42.298Z,13.82
2022-10-20T18:19:14.563Z,16.48
2022-10-20T18:21:42.943Z,11.13
2022-10-20T18:24:13.563Z,9.90
2022-10-20T18:26:41.675Z,10.82
2022-10-20T18:29:10.010Z,12.00
2022-10-20T18:31:39.580Z,10.52
2022-10-20T18:34:13.247Z,9.10
2022-10-20T18:36:44.943Z,10.63
2022-10-20T18:39:14.615Z,11.88
2022-10-20T18:41:43.544Z,14.00
2022-10-20T18:44:16.908Z,10.85
2022-10-20T18:46:46.506Z,11.20
2022-10-20T18:49:16.895Z,11.00
2022-10-20T18:51:45.381Z,11.25
2022-10-20T18:54:12.965Z,9.07
2022-10-20T18:56:40.552Z,10.30
2022-10-20T18:59:10.534Z,8.77
2022-10-20T19:01:39.592Z,8.98
2022-10-20T19:04:08.533Z,9.15
2022-10-20T19:06:39.752Z,11.23
2022-10-20T19:09:10.076Z,14.75
2022-10-20T19:11:39.877Z,11.18
2022-10-20T19:14:09.701Z,10.13
2022-10-20T19:16:38.384Z,12.82
2022-10-20T19:19:07.782Z,10.50
2022-10-20T19:21:36.336Z,13.38
2022-10-20T19:24:22.324Z,11.88
2022-10-20T19:27:24.567Z,14.43
2022-10-20T19:29:45.370Z,12.85
2022-10-20T19:32:12.809Z,11.02
2022-10-20T19:34:40.854Z,12.63
2022-10-20T19:37:09.138Z,12.80
2022-10-20T19:39:39.681Z,11.40
2022-10-20T19:42:07.601Z,10.27
2022-10-20T19:44:35.124Z,10.70
2022-10-20T19:47:02.761Z,11.27
2022-10-20T19:49:30.746Z,11.43
2022-10-20T19:51:58.202Z,12.27
2022-10-20T19:54:27.183Z,12.75
2022-10-20T19:56:54.754Z,10.88
2022-10-20T19:59:22.393Z,10.13
2022-10-20T20:01:50.131Z,13.05
2022-10-20T20:04:17.656Z,12.05
2022-10-20T20:06:45.139Z,14.70
2022-10-20T20:09:15.584Z,15.25
2022-10-20T20:11:43.343Z,13.00
2022-10-20T20:14:15.113Z,11.70
2022-10-20T20:19:17.910Z,14.60
2022-10-20T20:21:46.273Z,12.90
2022-10-20T20:24:14.849Z,15.45
2022-10-20T20:26:44.696Z,16.30
2022-10-20T20:29:12.408Z,16.60
2022-10-20T20:31:39.891Z,13.85
2022-10-20T20:34:07.413Z,15.77
2022-10-20T20:36:34.982Z,15.05
2022-10-20T20:39:02.693Z,17.00
2022-10-20T20:41:31.307Z,15.57
2022-10-20T20:43:59.269Z,17.10
2022-10-20T20:46:31.009Z,16.77
2022-10-20T20:48:58.710Z,16.52
2022-10-20T20:51:27.204Z,17.42
2022-10-20T20:53:57.540Z,12.52
2022-10-20T20:56:26.970Z,15.18
2022-10-20T20:58:55.545Z,16.00
2022-10-20T21:01:28.264Z,16.90
2022-10-20T21:03:58.062Z,21.15
2022-10-20T21:06:33.871Z,20.27
2022-10-20T21:09:08.441Z,15.15
2022-10-20T21:11:36.450Z,19.05
2022-10-20T21:14:04.777Z,22.67
2022-10-20T21:16:36.937Z,21.90
2022-10-20T21:19:08.641Z,22.38
2022-10-20T21:21:38.812Z,17.05
2022-10-20T21:24:06.846Z,19.35
2022-10-20T21:26:34.312Z,19.65
2022-10-20T21:29:02.150Z,14.88
2022-10-20T21:31:30.462Z,17.42
2022-10-20T21:34:04.437Z,16.20
2022-10-20T21:36:35.311Z,19.75
2022-10-20T21:39:05.872Z,16.50
2022-10-20T21:41:35.310Z,14.13
2022-10-20T21:44:04.733Z,17.98
2022-10-20T21:46:39.177Z,20.73
2022-10-20T21:49:09.947Z,15.75
2022-10-20T21:51:43.663Z,15.20
2022-10-20T21:54:23.068Z,16.52
2022-10-20T21:56:51.600Z,17.95
2022-10-20T21:59:24.189Z,18.83
2022-10-20T22:01:53.998Z,14.98
2022-10-20T22:04:23.940Z,15.18
2022-10-20T22:06:51.581Z,19.95
2022-10-20T22:09:21.112Z,16.13
2022-10-20T22:11:55.373Z,22.00
2022-10-20T22:14:23.719Z,16.55
2022-10-20T22:16:51.690Z,14.75
2022-10-20T22:19:21.731Z,16.70
2022-10-20T22:21:50.889Z,17.77
2022-10-20T22:24:19.251Z,17.67
2022-10-20T22:26:47.141Z,19.55
2022-10-20T22:29:14.610Z,20.42
2022-10-20T22:31:42.704Z,18.92
2022-10-20T22:34:10.911Z,18.55
2022-10-20T22:36:39.811Z,20.63
2022-10-20T22:39:08.641Z,19.27
2022-10-20T22:41:36.323Z,19.77
2022-10-20T22:44:04.089Z,19.10
2022-10-20T22:46:31.591Z,15.63
2022-10-20T22:51:31.511Z,17.20
2022-10-20T22:53:59.311Z,15.85
2022-10-20T22:56:26.823Z,17.20
2022-10-20T22:58:55.100Z,16.13
2022-10-20T23:01:24.471Z,17.15
2022-10-20T23:03:52.652Z,17.55
2022-10-20T23:06:25.292Z,19.80
2022-10-20T23:08:55.196Z,20.52
2022-10-20T23:11:23.330Z,18.20
2022-10-20T23:13:51.388Z,18.00
2022-10-20T23:16:19.502Z,17.38
2022-10-20T23:18:47.760Z,18.08
2022-10-20T23:21:15.529Z,16.48
2022-10-20T23:23:43.760Z,20.73
2022-10-20T23:26:12.000Z,18.00
2022-10-20T23:28:39.790Z,15.30
2022-10-20T23:31:09.389Z,16.90
2022-10-20T23:33:38.716Z,16.48
2022-10-20T23:36:06.670Z,15.25
2022-10-20T23:38:34.596Z,20.42
2022-10-20T23:41:01.940Z,18.83
2022-10-20T23:43:29.583Z,17.85
2022-10-20T23:45:57.220Z,19.27
2022-10-20T23:48:25.445Z,19.38
2022-10-20T23:50:53.169Z,20.70
2022-10-20T23:53:21.068Z,21.02
2022-10-20T23:55:48.699Z,22.20
2022-10-20T23:58:21.069Z,20.30
